createdAt,value
2023-04-09T00:00:02.777Z,0.00
2023-04-09T00:01:02.654Z,0.00
2023-04-09T00:02:01.665Z,0.00
2023-04-09T00:03:01.923Z,0.00
2023-04-09T00:04:01.947Z,0.00
2023-04-09T00:05:01.713Z,0.00
2023-04-09T00:06:01.664Z,0.00
2023-04-09T00:07:02.346Z,0.00
2023-04-09T00:08:02.622Z,0.00
2023-04-09T00:09:02.807Z,0.00
2023-04-09T00:10:02.411Z,0.00
2023-04-09T00:11:02.292Z,0.00
2023-04-09T00:12:02.206Z,0.00
2023-04-09T00:13:02.068Z,0.00
2023-04-09T00:14:02.097Z,0.00
2023-04-09T00:15:02.124Z,0.00
2023-04-09T00:16:02.156Z,0.00
2023-04-09T00:17:02.504Z,0.00
2023-04-09T00:18:02.082Z,0.00
2023-04-09T00:19:02.479Z,0.00
2023-04-09T00:20:01.983Z,0.00
2023-04-09T00:21:02.360Z,0.00
2023-04-09T00:22:02.444Z,0.00
2023-04-09T00:23:02.859Z,0.00
2023-04-09T00:24:02.746Z,0.00
2023-04-09T00:25:02.942Z,0.00
2023-04-09T00:26:02.599Z,0.00
2023-04-09T00:27:02.561Z,0.00
2023-04-09T00:28:02.652Z,0.00
2023-04-09T00:29:02.569Z,0.00
2023-04-09T00:30:02.472Z,0.00
2023-04-09T00:31:03.072Z,0.00
2023-04-09T00:32:02.093Z,0.00
2023-04-09T00:33:02.076Z,0.00
2023-04-09T00:34:02.157Z,0.00
2023-04-09T00:35:01.910Z,0.00
2023-04-09T00:36:01.820Z,0.00
2023-04-09T00:37:02.119Z,0.00
2023-04-09T00:38:02.068Z,0.00
2023-04-09T00:39:02.452Z,0.00
2023-04-09T00:40:02.398Z,0.00
2023-04-09T00:41:01.982Z,0.00
2023-04-09T00:42:02.435Z,0.00
2023-04-09T00:43:02.693Z,0.00
2023-04-09T00:44:02.372Z,0.00
2023-04-09T00:45:03.035Z,0.00
2023-04-09T00:46:02.735Z,0.00
2023-04-09T00:47:01.645Z,0.00
2023-04-09T00:48:01.926Z,0.00
2023-04-09T00:49:01.771Z,0.00
2023-04-09T00:50:01.595Z,0.00
2023-04-09T00:51:01.554Z,0.00
2023-04-09T00:52:02.353Z,0.00
2023-04-09T00:53:02.197Z,0.00
2023-04-09T00:54:02.048Z,0.00
2023-04-09T00:55:02.197Z,0.00
2023-04-09T00:56:02.314Z,0.00
2023-04-09T00:57:02.540Z,0.00
2023-04-09T00:58:02.760Z,0.00
2023-04-09T00:59:02.482Z,0.00
2023-04-09T01:00:02.635Z,0.00
2023-04-09T01:01:02.981Z,0.00
2023-04-09T01:02:02.071Z,0.00
2023-04-09T01:03:02.284Z,0.00
2023-04-09T01:04:02.003Z,0.00
2023-04-09T01:05:01.842Z,0.00
2023-04-09T01:06:02.346Z,0.00
2023-04-09T01:07:01.896Z,0.00
2023-04-09T01:08:01.771Z,0.00
2023-04-09T01:09:02.256Z,0.00
2023-04-09T01:10:02.269Z,0.00
2023-04-09T01:11:02.381Z,0.00
2023-04-09T01:12:02.351Z,0.00
2023-04-09T01:13:02.646Z,0.00
2023-04-09T01:14:02.575Z,0.00
2023-04-09T01:15:02.496Z,0.00
2023-04-09T01:16:02.434Z,0.00
2023-04-09T01:17:02.038Z,0.00
2023-04-09T01:18:01.797Z,0.00
2023-04-09T01:19:02.344Z,0.00
2023-04-09T01:20:02.161Z,0.00
2023-04-09T01:21:02.188Z,0.00
2023-04-09T01:22:02.365Z,0.00
2023-04-09T01:23:02.165Z,0.00
2023-04-09T01:24:02.325Z,0.00
2023-04-09T01:25:02.330Z,0.00
2023-04-09T01:26:02.440Z,0.00
2023-04-09T01:27:02.570Z,0.00
2023-04-09T01:28:02.045Z,0.00
2023-04-09T01:29:02.063Z,0.00
2023-04-09T01:30:02.582Z,0.00
2023-04-09T01:31:02.222Z,0.00
2023-04-09T01:32:01.825Z,0.00
2023-04-09T01:33:01.677Z,0.00
2023-04-09T01:34:01.625Z,0.00
2023-04-09T01:35:02.113Z,0.00
2023-04-09T01:36:01.705Z,0.00
2023-04-09T01:37:02.179Z,0.00
2023-04-09T01:38:01.993Z,0.00
2023-04-09T01:39:01.887Z,0.00
2023-04-09T01:40:02.173Z,0.00
2023-04-09T01:41:02.043Z,0.00
2023-04-09T01:42:02.589Z,0.00
2023-04-09T01:43:02.221Z,0.00
2023-04-09T01:44:02.767Z,0.00
2023-04-09T01:45:02.492Z,0.00
2023-04-09T01:46:02.612Z,0.00
2023-04-09T01:47:02.099Z,0.00
2023-04-09T01:48:02.120Z,0.00
2023-04-09T01:49:02.223Z,0.00
2023-04-09T01:50:02.522Z,0.00
2023-04-09T01:51:01.952Z,0.00
2023-04-09T01:52:02.382Z,0.00
2023-04-09T01:53:02.348Z,0.00
2023-04-09T01:54:02.247Z,0.00
2023-04-09T01:55:02.697Z,0.00
2023-04-09T01:56:02.704Z,0.00
2023-04-09T01:57:02.259Z,0.00
2023-04-09T01:58:02.131Z,0.00
2023-04-09T01:59:02.248Z,0.00
2023-04-09T02:00:02.242Z,0.00
2023-04-09T02:01:02.517Z,0.00
2023-04-09T02:02:02.556Z,0.00
2023-04-09T02:03:02.682Z,0.00
2023-04-09T02:04:02.727Z,0.00
2023-04-09T02:05:02.404Z,0.00
2023-04-09T02:06:02.917Z,0.00
2023-04-09T02:07:03.323Z,0.00
2023-04-09T02:08:02.781Z,0.00
2023-04-09T02:09:03.269Z,0.00
2023-04-09T02:10:02.705Z,0.00
2023-04-09T02:11:02.730Z,0.00
2023-04-09T02:12:03.148Z,0.00
2023-04-09T02:13:02.999Z,0.00
2023-04-09T02:14:03.242Z,0.00
2023-04-09T02:15:03.123Z,0.00
2023-04-09T02:16:02.943Z,0.00
2023-04-09T02:17:02.556Z,0.00
2023-04-09T02:18:02.159Z,0.00
2023-04-09T02:19:02.007Z,0.00
2023-04-09T02:20:02.225Z,0.00
2023-04-09T02:21:02.294Z,0.00
2023-04-09T02:22:02.805Z,0.00
2023-04-09T02:23:02.803Z,0.00
2023-04-09T02:24:02.370Z,0.00
2023-04-09T02:25:02.521Z,0.00
2023-04-09T02:26:02.629Z,0.00
2023-04-09T02:27:01.849Z,0.00
2023-04-09T02:28:02.461Z,0.00
2023-04-09T02:29:02.317Z,0.00
2023-04-09T02:30:02.432Z,0.00
2023-04-09T02:31:02.181Z,0.00
2023-04-09T02:32:02.170Z,0.00
2023-04-09T02:33:02.807Z,0.00
2023-04-09T02:34:02.482Z,0.00
2023-04-09T02:35:02.267Z,0.00
2023-04-09T02:36:02.217Z,0.00
2023-04-09T02:37:02.817Z,0.00
2023-04-09T02:38:02.826Z,0.00
2023-04-09T02:39:02.777Z,0.00
2023-04-09T02:40:02.448Z,0.00
2023-04-09T02:41:02.340Z,0.00
2023-04-09T02:42:02.598Z,0.00
2023-04-09T02:43:02.531Z,0.00
2023-04-09T02:44:02.290Z,0.00
2023-04-09T02:45:02.324Z,0.00
2023-04-09T02:46:02.547Z,0.00
2023-04-09T02:47:03.062Z,0.00
2023-04-09T02:48:02.880Z,0.00
2023-04-09T02:49:02.827Z,0.00
2023-04-09T02:50:02.641Z,0.00
2023-04-09T02:51:02.616Z,0.00
2023-04-09T02:52:03.327Z,0.00
2023-04-09T02:53:03.100Z,0.00
2023-04-09T02:54:03.159Z,0.00
2023-04-09T02:55:03.064Z,0.00
2023-04-09T02:56:03.081Z,0.00
2023-04-09T02:57:02.122Z,0.00
2023-04-09T02:58:02.267Z,0.00
2023-04-09T02:59:02.369Z,0.00
2023-04-09T03:00:02.308Z,0.00
2023-04-09T03:01:02.370Z,0.00
2023-04-09T03:02:02.932Z,0.00
2023-04-09T03:03:02.804Z,0.00
2023-04-09T03:04:02.688Z,0.00
2023-04-09T03:05:02.458Z,0.00
2023-04-09T03:06:02.592Z,0.00
2023-04-09T03:07:02.554Z,0.00
2023-04-09T03:08:03.081Z,0.00
2023-04-09T03:09:02.811Z,0.00
2023-04-09T03:10:02.715Z,0.00
2023-04-09T03:11:02.877Z,0.00
2023-04-09T03:12:02.807Z,0.00
2023-04-09T03:13:03.281Z,0.00
2023-04-09T03:14:03.103Z,0.00
2023-04-09T03:15:02.901Z,0.00
2023-04-09T03:16:03.467Z,0.00
2023-04-09T03:17:02.143Z,0.00
2023-04-09T03:18:02.784Z,0.00
2023-04-09T03:19:02.302Z,0.00
2023-04-09T03:20:02.545Z,0.00
2023-04-09T03:21:02.413Z,0.00
2023-04-09T03:22:02.458Z,0.00
2023-04-09T03:23:02.487Z,0.00
2023-04-09T03:24:02.998Z,0.00
2023-04-09T03:25:02.519Z,0.00
2023-04-09T03:26:03.044Z,0.00
2023-04-09T03:27:02.111Z,0.00
2023-04-09T03:28:02.102Z,0.00
2023-04-09T03:29:02.534Z,0.00
2023-04-09T03:30:02.096Z,0.00
2023-04-09T03:31:02.019Z,0.00
2023-04-09T03:32:02.682Z,0.00
2023-04-09T03:33:02.688Z,0.00
2023-04-09T03:34:03.111Z,0.00
2023-04-09T03:35:02.583Z,0.00
2023-04-09T03:36:03.326Z,0.00
2023-04-09T03:37:02.917Z,0.00
2023-04-09T03:38:02.859Z,0.00
2023-04-09T03:39:03.241Z,0.00
2023-04-09T03:40:03.101Z,0.00
2023-04-09T03:41:02.892Z,0.00
2023-04-09T03:42:03.002Z,0.00
2023-04-09T03:43:02.680Z,0.00
2023-04-09T03:44:02.498Z,0.00
2023-04-09T03:45:02.527Z,0.00
2023-04-09T03:46:02.592Z,0.00
2023-04-09T03:47:02.264Z,0.00
2023-04-09T03:48:02.644Z,0.00
2023-04-09T03:49:02.483Z,0.00
2023-04-09T03:50:02.482Z,0.00
2023-04-09T03:51:02.322Z,0.00
2023-04-09T03:52:02.864Z,0.00
2023-04-09T03:53:02.873Z,0.00
2023-04-09T03:54:02.744Z,0.00
2023-04-09T03:55:03.261Z,0.00
2023-04-09T03:56:02.676Z,0.00
2023-04-09T03:57:02.331Z,0.00
2023-04-09T03:58:02.558Z,0.00
2023-04-09T03:59:02.402Z,0.00
2023-04-09T04:00:02.418Z,0.00
2023-04-09T04:01:02.416Z,0.00
2023-04-09T04:02:03.689Z,0.00
2023-04-09T04:03:03.568Z,0.00
2023-04-09T04:04:03.234Z,0.00
2023-04-09T04:05:03.154Z,0.00
2023-04-09T04:06:03.009Z,0.00
2023-04-09T04:07:02.373Z,0.00
2023-04-09T04:08:02.254Z,0.00
2023-04-09T04:09:02.192Z,0.00
2023-04-09T04:10:02.156Z,0.00
2023-04-09T04:11:02.639Z,0.00
2023-04-09T04:12:03.038Z,0.00
2023-04-09T04:13:02.973Z,0.00
2023-04-09T04:14:02.893Z,0.00
2023-04-09T04:15:02.742Z,0.00
2023-04-09T04:16:03.316Z,0.00
2023-04-09T04:17:03.176Z,0.00
2023-04-09T04:18:03.120Z,0.00
2023-04-09T04:19:02.898Z,4.00
2023-04-09T04:20:03.444Z,4.00
2023-04-09T04:21:03.355Z,4.00
2023-04-09T04:22:03.294Z,0.00
2023-04-09T04:23:03.616Z,4.00
2023-04-09T04:24:03.216Z,4.00
2023-04-09T04:25:03.196Z,4.00
2023-04-09T04:26:03.212Z,8.00
2023-04-09T04:27:02.847Z,8.00
2023-04-09T04:28:02.423Z,8.00
2023-04-09T04:29:02.528Z,8.00
2023-04-09T04:30:02.515Z,12.00
2023-04-09T04:31:02.354Z,12.00
2023-04-09T04:32:03.065Z,12.00
2023-04-09T04:33:02.924Z,16.00
2023-04-09T04:34:02.904Z,20.00
2023-04-09T04:35:02.916Z,20.00
2023-04-09T04:36:03.131Z,28.00
2023-04-09T04:37:03.109Z,32.00
2023-04-09T04:38:02.804Z,36.00
2023-04-09T04:39:02.641Z,44.00
2023-04-09T04:40:02.888Z,48.00
2023-04-09T04:41:02.957Z,60.00
2023-04-09T04:42:02.696Z,68.00
2023-04-09T04:43:02.646Z,76.00
2023-04-09T04:44:03.201Z,88.00
2023-04-09T04:45:03.113Z,100.00
2023-04-09T04:46:03.169Z,116.00
2023-04-09T04:47:02.660Z,132.00
2023-04-09T04:48:02.932Z,152.00
2023-04-09T04:49:02.664Z,172.00
2023-04-09T04:50:02.618Z,188.00
2023-04-09T04:51:02.838Z,208.00
2023-04-09T04:52:03.374Z,228.00
2023-04-09T04:53:03.284Z,252.00
2023-04-09T04:54:02.895Z,272.00
2023-04-09T04:55:02.865Z,296.00
2023-04-09T04:56:02.778Z,324.00
2023-04-09T04:57:02.504Z,352.00
2023-04-09T04:58:02.571Z,384.00
2023-04-09T04:59:02.223Z,420.00
2023-04-09T05:00:02.230Z,456.00
2023-04-09T05:01:02.593Z,484.00
2023-04-09T05:02:02.334Z,520.00
2023-04-09T05:03:02.164Z,548.00
2023-04-09T05:04:02.060Z,584.00
2023-04-09T05:05:02.071Z,620.00
2023-04-09T05:06:02.204Z,652.00
2023-04-09T05:07:02.018Z,688.00
2023-04-09T05:08:02.118Z,724.00
2023-04-09T05:09:02.389Z,768.00
2023-04-09T05:10:02.448Z,816.00
2023-04-09T05:11:02.268Z,860.00
2023-04-09T05:12:02.664Z,912.00
2023-04-09T05:13:02.253Z,968.00
2023-04-09T05:14:02.195Z,1020.00
2023-04-09T05:15:02.203Z,1084.00
2023-04-09T05:16:02.160Z,1120.00
2023-04-09T05:17:02.876Z,1160.00
2023-04-09T05:18:02.853Z,1196.00
2023-04-09T05:19:02.654Z,1252.00
2023-04-09T05:20:02.506Z,1320.00
2023-04-09T05:21:02.902Z,1384.00
2023-04-09T05:22:02.381Z,1428.00
2023-04-09T05:23:02.440Z,1460.00
2023-04-09T05:24:02.167Z,1476.00
2023-04-09T05:25:02.167Z,1480.00
2023-04-09T05:26:02.120Z,1512.00
2023-04-09T05:27:02.709Z,1556.00
2023-04-09T05:28:02.516Z,1604.00
2023-04-09T05:29:02.493Z,1656.00
2023-04-09T05:30:02.479Z,1732.00
2023-04-09T05:31:02.527Z,1804.00
2023-04-09T05:32:02.288Z,1880.00
2023-04-09T05:33:01.694Z,1936.00
2023-04-09T05:34:02.094Z,1960.00
2023-04-09T05:35:02.127Z,1984.00
2023-04-09T05:36:02.107Z,2016.00
2023-04-09T05:37:02.340Z,2068.00
2023-04-09T05:38:02.378Z,2132.00
2023-04-09T05:39:02.663Z,2168.00
2023-04-09T05:40:02.446Z,2212.00
2023-04-09T05:41:02.348Z,2268.00
2023-04-09T05:42:02.329Z,2340.00
2023-04-09T05:43:02.935Z,2392.00
2023-04-09T05:44:02.820Z,2428.00
2023-04-09T05:45:02.417Z,2456.00
2023-04-09T05:46:02.546Z,2456.00
2023-04-09T05:47:02.101Z,2500.00
2023-04-09T05:48:02.345Z,2556.00
2023-04-09T05:49:02.098Z,2632.00
2023-04-09T05:50:02.320Z,2720.00
2023-04-09T05:51:02.072Z,2792.00
2023-04-09T05:52:02.678Z,2884.00
2023-04-09T05:53:02.528Z,2968.00
2023-04-09T05:54:02.651Z,3032.00
2023-04-09T05:55:02.331Z,3064.00
2023-04-09T05:56:02.562Z,3104.00
2023-04-09T05:57:02.316Z,3160.00
2023-04-09T05:58:02.288Z,3244.00
2023-04-09T05:59:02.689Z,3356.00
2023-04-09T06:00:02.764Z,3468.00
2023-04-09T06:01:02.690Z,3560.00
2023-04-09T06:02:01.901Z,3652.00
2023-04-09T06:03:02.195Z,3756.00
2023-04-09T06:04:02.464Z,3852.00
2023-04-09T06:05:02.124Z,3920.00
2023-04-09T06:06:01.921Z,3952.00
2023-04-09T06:07:01.804Z,3996.00
2023-04-09T06:08:01.715Z,4068.00
2023-04-09T06:09:01.721Z,4148.00
2023-04-09T06:10:02.134Z,4272.00
2023-04-09T06:11:02.133Z,4384.00
2023-04-09T06:12:01.999Z,4496.00
2023-04-09T06:13:02.280Z,4664.00
2023-04-09T06:14:02.499Z,4852.00
2023-04-09T06:15:01.946Z,5004.00
2023-04-09T06:16:02.569Z,5076.00
2023-04-09T06:17:02.217Z,5116.00
2023-04-09T06:18:02.639Z,5164.00
2023-04-09T06:19:02.631Z,5204.00
2023-04-09T06:20:02.330Z,5252.00
2023-04-09T06:21:02.383Z,5360.00
2023-04-09T06:22:02.235Z,5544.00
2023-04-09T06:23:02.468Z,5764.00
2023-04-09T06:24:02.461Z,5976.00
2023-04-09T06:25:02.696Z,6196.00
2023-04-09T06:26:02.213Z,6364.00
2023-04-09T06:27:02.140Z,6564.00
2023-04-09T06:28:02.070Z,6840.00
2023-04-09T06:29:02.118Z,7100.00
2023-04-09T06:30:02.361Z,7584.00
2023-04-09T06:31:02.146Z,12528.00
2023-04-09T06:32:02.258Z,11896.00
2023-04-09T06:33:02.523Z,11400.00
2023-04-09T06:34:02.606Z,11620.00
2023-04-09T06:35:02.500Z,12880.00
2023-04-09T06:36:02.427Z,10976.00
2023-04-09T06:37:01.678Z,10840.00
2023-04-09T06:38:01.782Z,10804.00
2023-04-09T06:39:01.799Z,10768.00
2023-04-09T06:40:01.834Z,14784.00
2023-04-09T06:41:02.092Z,12732.00
2023-04-09T06:42:02.268Z,9732.00
2023-04-09T06:43:02.257Z,15520.00
2023-04-09T06:44:02.349Z,15168.00
2023-04-09T06:45:02.248Z,11684.00
2023-04-09T06:46:02.207Z,14912.00
2023-04-09T06:47:02.455Z,10976.00
2023-04-09T06:48:02.633Z,14432.00
2023-04-09T06:49:02.567Z,14176.00
2023-04-09T06:50:02.591Z,14656.00
2023-04-09T06:51:02.435Z,15200.00
2023-04-09T06:52:02.342Z,16160.00
2023-04-09T06:53:02.314Z,17280.00
2023-04-09T06:54:02.369Z,17856.00
2023-04-09T06:55:02.954Z,18112.00
2023-04-09T06:56:02.775Z,19232.00
2023-04-09T06:57:01.745Z,19392.00
2023-04-09T06:58:02.225Z,18784.00
2023-04-09T06:59:01.674Z,19072.00
2023-04-09T07:00:01.570Z,19840.00
2023-04-09T07:01:01.928Z,20160.00
2023-04-09T07:02:03.528Z,20320.00
2023-04-09T07:03:03.140Z,20768.00
2023-04-09T07:04:03.620Z,22496.00
2023-04-09T07:05:02.888Z,23392.00
2023-04-09T07:06:03.443Z,22784.00
2023-04-09T07:07:02.587Z,21056.00
2023-04-09T07:08:02.280Z,19136.00
2023-04-09T07:09:02.300Z,16704.00
2023-04-09T07:10:02.867Z,14496.00
2023-04-09T07:11:02.735Z,13728.00
2023-04-09T07:12:02.755Z,13436.00
2023-04-09T07:13:02.735Z,13380.00
2023-04-09T07:14:02.855Z,13424.00
2023-04-09T07:15:02.947Z,13668.00
2023-04-09T07:16:02.572Z,13832.00
2023-04-09T07:17:03.210Z,13860.00
2023-04-09T07:18:03.631Z,13928.00
2023-04-09T07:19:03.472Z,14104.00
2023-04-09T07:20:03.431Z,14096.00
2023-04-09T07:21:04.397Z,14228.00
2023-04-09T07:22:03.213Z,14288.00
2023-04-09T07:23:03.577Z,14360.00
2023-04-09T07:24:03.492Z,14480.00
2023-04-09T07:25:03.312Z,14628.00
2023-04-09T07:26:03.414Z,14720.00
2023-04-09T07:27:02.564Z,14756.00
2023-04-09T07:28:02.836Z,14804.00
2023-04-09T07:29:02.810Z,14928.00
2023-04-09T07:30:02.785Z,14996.00
2023-04-09T07:31:02.487Z,15040.00
2023-04-09T07:32:03.270Z,15096.00
2023-04-09T07:33:03.023Z,15232.00
2023-04-09T07:34:03.059Z,15456.00
2023-04-09T07:35:03.177Z,15456.00
2023-04-09T07:36:03.345Z,15584.00
2023-04-09T07:37:02.843Z,15712.00
2023-04-09T07:38:03.030Z,15776.00
2023-04-09T07:39:02.468Z,15904.00
2023-04-09T07:40:03.088Z,16000.00
2023-04-09T07:41:02.624Z,16096.00
2023-04-09T07:42:03.403Z,16224.00
2023-04-09T07:43:03.325Z,16352.00
2023-04-09T07:44:03.099Z,16448.00
2023-04-09T07:45:03.262Z,16640.00
2023-04-09T07:46:03.604Z,16736.00
2023-04-09T07:47:02.836Z,16864.00
2023-04-09T07:48:02.928Z,17024.00
2023-04-09T07:49:02.497Z,17184.00
2023-04-09T07:50:02.598Z,17184.00
2023-04-09T07:51:02.568Z,17312.00
2023-04-09T07:52:03.268Z,17440.00
2023-04-09T07:53:03.392Z,17568.00
2023-04-09T07:54:03.461Z,17568.00
2023-04-09T07:55:03.028Z,17856.00
2023-04-09T07:56:03.396Z,17856.00
2023-04-09T07:57:03.345Z,18016.00
2023-04-09T07:58:03.190Z,18112.00
2023-04-09T07:59:03.588Z,18240.00
2023-04-09T08:00:02.955Z,18432.00
2023-04-09T08:01:03.222Z,18464.00
2023-04-09T08:02:02.802Z,18496.00
2023-04-09T08:03:03.065Z,18720.00
2023-04-09T08:04:03.268Z,18880.00
2023-04-09T08:05:02.749Z,18976.00
2023-04-09T08:06:02.868Z,19200.00
2023-04-09T08:07:03.003Z,19296.00
2023-04-09T08:08:03.107Z,19392.00
2023-04-09T08:09:02.926Z,19456.00
2023-04-09T08:10:03.052Z,19648.00
2023-04-09T08:11:03.146Z,19872.00
2023-04-09T08:12:02.673Z,19872.00
2023-04-09T08:13:02.434Z,20000.00
2023-04-09T08:14:02.421Z,20224.00
2023-04-09T08:15:02.537Z,20480.00
2023-04-09T08:16:02.587Z,20608.00
2023-04-09T08:17:02.314Z,20832.00
2023-04-09T08:18:02.043Z,21024.00
2023-04-09T08:19:02.375Z,21216.00
2023-04-09T08:20:02.110Z,21280.00
2023-04-09T08:21:01.882Z,21568.00
2023-04-09T08:22:02.872Z,21920.00
2023-04-09T08:23:02.349Z,22144.00
2023-04-09T08:24:02.305Z,22624.00
2023-04-09T08:25:03.039Z,22752.00
2023-04-09T08:26:02.965Z,23296.00
2023-04-09T08:27:02.250Z,23040.00
2023-04-09T08:28:01.870Z,23200.00
2023-04-09T08:29:01.833Z,23328.00
2023-04-09T08:30:01.954Z,23904.00
2023-04-09T08:31:02.278Z,24160.00
2023-04-09T08:32:02.839Z,24608.00
2023-04-09T08:33:02.245Z,24960.00
2023-04-09T08:34:02.655Z,25184.00
2023-04-09T08:35:02.579Z,25120.00
2023-04-09T08:36:03.455Z,25024.00
2023-04-09T08:37:01.783Z,25536.00
2023-04-09T08:38:02.163Z,26144.00
2023-04-09T08:39:02.186Z,27008.00
2023-04-09T08:40:02.331Z,27424.00
2023-04-09T08:41:02.109Z,27808.00
2023-04-09T08:42:02.919Z,28000.00
2023-04-09T08:43:02.273Z,28096.00
2023-04-09T08:44:02.947Z,28480.00
2023-04-09T08:45:02.858Z,28448.00
2023-04-09T08:46:02.637Z,28800.00
2023-04-09T08:47:01.757Z,29248.00
2023-04-09T08:48:01.993Z,29408.00
2023-04-09T08:49:02.246Z,29408.00
2023-04-09T08:50:02.098Z,29312.00
2023-04-09T08:51:02.242Z,29728.00
2023-04-09T08:52:02.235Z,30400.00
2023-04-09T08:53:02.216Z,30912.00
2023-04-09T08:54:04.660Z,31328.00
2023-04-09T08:55:02.536Z,31264.00
2023-04-09T08:56:02.766Z,31264.00
2023-04-09T08:57:01.816Z,31232.00
2023-04-09T08:58:01.911Z,31616.00
2023-04-09T08:59:02.056Z,31424.00
2023-04-09T09:00:01.993Z,31168.00
2023-04-09T09:01:01.815Z,30784.00
2023-04-09T09:02:02.233Z,31136.00
2023-04-09T09:03:02.667Z,31584.00
2023-04-09T09:04:02.863Z,31616.00
2023-04-09T09:05:02.716Z,31360.00
2023-04-09T09:06:02.204Z,31296.00
2023-04-09T09:07:02.332Z,31360.00
2023-04-09T09:08:02.296Z,32000.00
2023-04-09T09:09:02.687Z,31680.00
2023-04-09T09:10:02.711Z,31552.00
2023-04-09T09:11:02.651Z,31456.00
2023-04-09T09:12:03.289Z,32192.00
2023-04-09T09:13:03.373Z,32000.00
2023-04-09T09:14:03.111Z,31776.00
2023-04-09T09:15:02.864Z,31680.00
2023-04-09T09:16:02.986Z,31232.00
2023-04-09T09:17:02.037Z,31360.00
2023-04-09T09:18:02.052Z,30688.00
2023-04-09T09:19:02.442Z,22272.00
2023-04-09T09:20:01.950Z,17792.00
2023-04-09T09:21:01.964Z,30784.00
2023-04-09T09:22:02.070Z,32640.00
2023-04-09T09:23:02.345Z,32704.00
2023-04-09T09:24:02.359Z,33216.00
2023-04-09T09:25:02.316Z,12540.00
2023-04-09T09:26:01.998Z,12348.00
2023-04-09T09:27:02.324Z,14984.00
2023-04-09T09:28:02.737Z,30752.00
2023-04-09T09:29:02.552Z,14120.00
2023-04-09T09:30:02.649Z,16992.00
2023-04-09T09:31:02.769Z,33120.00
2023-04-09T09:32:02.517Z,33280.00
2023-04-09T09:33:02.546Z,32256.00
2023-04-09T09:34:02.490Z,31200.00
2023-04-09T09:35:02.479Z,30464.00
2023-04-09T09:36:02.670Z,18464.00
2023-04-09T09:37:02.653Z,12624.00
2023-04-09T09:38:02.683Z,13288.00
2023-04-09T09:39:03.061Z,20352.00
2023-04-09T09:40:02.972Z,35712.00
2023-04-09T09:41:02.523Z,37088.00
2023-04-09T09:42:02.209Z,37408.00
2023-04-09T09:43:02.283Z,36512.00
2023-04-09T09:44:02.406Z,17568.00
2023-04-09T09:45:02.465Z,16384.00
2023-04-09T09:46:02.337Z,17024.00
2023-04-09T09:47:02.434Z,14240.00
2023-04-09T09:48:02.810Z,25952.00
2023-04-09T09:49:02.275Z,12744.00
2023-04-09T09:50:02.442Z,26720.00
2023-04-09T09:51:02.536Z,32000.00
2023-04-09T09:52:02.622Z,36352.00
2023-04-09T09:53:02.597Z,37056.00
2023-04-09T09:54:02.611Z,17568.00
2023-04-09T09:55:02.723Z,19456.00
2023-04-09T09:56:02.810Z,32864.00
2023-04-09T09:57:02.992Z,33440.00
2023-04-09T09:58:02.901Z,20320.00
2023-04-09T09:59:03.385Z,26752.00
2023-04-09T10:00:03.270Z,14068.00
2023-04-09T10:01:02.942Z,17920.00
2023-04-09T10:02:02.829Z,34592.00
2023-04-09T10:03:02.987Z,34848.00
2023-04-09T10:04:02.848Z,34656.00
2023-04-09T10:05:03.059Z,33984.00
2023-04-09T10:06:03.030Z,33504.00
2023-04-09T10:07:03.199Z,33152.00
2023-04-09T10:08:03.423Z,12452.00
2023-04-09T10:09:03.288Z,10988.00
2023-04-09T10:10:03.125Z,10780.00
2023-04-09T10:11:02.963Z,10540.00
2023-04-09T10:12:02.855Z,10924.00
2023-04-09T10:13:03.045Z,12668.00
2023-04-09T10:14:02.693Z,17024.00
2023-04-09T10:15:02.955Z,36064.00
2023-04-09T10:16:03.264Z,36608.00
2023-04-09T10:17:02.375Z,36704.00
2023-04-09T10:18:02.373Z,39488.00
2023-04-09T10:19:02.481Z,21856.00
2023-04-09T10:20:02.659Z,22016.00
2023-04-09T10:21:02.535Z,26208.00
2023-04-09T10:22:02.713Z,17984.00
2023-04-09T10:23:02.976Z,18784.00
2023-04-09T10:24:03.025Z,35392.00
2023-04-09T10:25:02.388Z,34368.00
2023-04-09T10:26:02.509Z,15836.00
2023-04-09T10:27:03.327Z,33152.00
2023-04-09T10:28:03.495Z,34176.00
2023-04-09T10:29:03.632Z,13100.00
2023-04-09T10:30:03.379Z,13552.00
2023-04-09T10:31:03.067Z,25568.00
2023-04-09T10:32:02.488Z,12288.00
2023-04-09T10:33:02.595Z,15460.00
2023-04-09T10:34:02.709Z,33728.00
2023-04-09T10:35:03.055Z,35680.00
2023-04-09T10:36:02.989Z,33824.00
2023-04-09T10:37:02.549Z,32352.00
2023-04-09T10:38:02.494Z,14724.00
2023-04-09T10:39:02.550Z,13864.00
2023-04-09T10:40:02.605Z,13096.00
2023-04-09T10:41:02.719Z,13684.00
2023-04-09T10:42:03.099Z,14264.00
2023-04-09T10:43:03.011Z,14716.00
2023-04-09T10:44:03.146Z,15128.00
2023-04-09T10:45:03.222Z,15904.00
2023-04-09T10:46:02.653Z,16864.00
2023-04-09T10:47:02.725Z,17376.00
2023-04-09T10:48:02.296Z,17792.00
2023-04-09T10:49:02.836Z,24768.00
2023-04-09T10:50:02.735Z,19424.00
2023-04-09T10:51:02.754Z,18976.00
2023-04-09T10:52:02.913Z,19776.00
2023-04-09T10:53:02.733Z,21312.00
2023-04-09T10:54:02.536Z,42432.00
2023-04-09T10:55:02.635Z,43328.00
2023-04-09T10:56:02.766Z,42944.00
2023-04-09T10:57:03.186Z,20672.00
2023-04-09T10:58:03.297Z,23520.00
2023-04-09T10:59:03.378Z,21056.00
2023-04-09T11:00:03.224Z,23328.00
2023-04-09T11:01:03.213Z,40000.00
2023-04-09T11:02:03.033Z,24512.00
2023-04-09T11:03:02.846Z,21728.00
2023-04-09T11:04:02.877Z,19744.00
2023-04-09T11:05:02.776Z,19232.00
2023-04-09T11:06:02.953Z,17920.00
2023-04-09T11:07:03.406Z,17632.00
2023-04-09T11:08:03.527Z,17248.00
2023-04-09T11:09:03.457Z,16832.00
2023-04-09T11:10:03.309Z,16384.00
2023-04-09T11:11:03.511Z,16256.00
2023-04-09T11:12:03.455Z,16320.00
2023-04-09T11:13:03.125Z,16544.00
2023-04-09T11:14:02.986Z,16928.00
2023-04-09T11:15:03.143Z,17504.00
2023-04-09T11:16:03.432Z,18176.00
2023-04-09T11:17:03.031Z,18848.00
2023-04-09T11:18:02.663Z,19648.00
2023-04-09T11:19:02.718Z,20416.00
2023-04-09T11:20:02.786Z,21312.00
2023-04-09T11:21:02.999Z,22272.00
2023-04-09T11:22:03.160Z,23424.00
2023-04-09T11:23:03.030Z,23776.00
2023-04-09T11:24:03.053Z,24448.00
2023-04-09T11:25:02.717Z,28064.00
2023-04-09T11:26:02.785Z,23936.00
2023-04-09T11:27:03.515Z,23456.00
2023-04-09T11:28:03.360Z,22336.00
2023-04-09T11:29:03.275Z,22080.00
2023-04-09T11:30:03.292Z,22368.00
2023-04-09T11:31:03.507Z,22976.00
2023-04-09T11:32:02.137Z,26240.00
2023-04-09T11:33:02.381Z,25472.00
2023-04-09T11:34:02.416Z,25696.00
2023-04-09T11:35:02.477Z,23328.00
2023-04-09T11:36:02.250Z,22720.00
2023-04-09T11:37:02.621Z,21632.00
2023-04-09T11:38:02.861Z,21216.00
2023-04-09T11:39:02.838Z,21952.00
2023-04-09T11:40:03.275Z,21984.00
2023-04-09T11:41:03.264Z,21248.00
2023-04-09T11:42:02.829Z,21760.00
2023-04-09T11:43:03.139Z,22144.00
2023-04-09T11:44:02.912Z,22272.00
2023-04-09T11:45:02.987Z,22304.00
2023-04-09T11:46:03.185Z,21312.00
2023-04-09T11:47:03.533Z,20608.00
2023-04-09T11:48:02.825Z,20352.00
2023-04-09T11:49:02.976Z,20512.00
2023-04-09T11:50:02.487Z,21056.00
2023-04-09T11:51:02.624Z,21120.00
2023-04-09T11:52:02.675Z,21888.00
2023-04-09T11:53:03.388Z,22688.00
2023-04-09T11:54:03.422Z,23264.00
2023-04-09T11:55:03.430Z,23968.00
2023-04-09T11:56:03.510Z,25120.00
2023-04-09T11:57:03.423Z,23040.00
2023-04-09T11:58:03.224Z,22080.00
2023-04-09T11:59:03.167Z,23296.00
2023-04-09T12:00:05.210Z,20512.00
2023-04-09T12:01:03.076Z,20000.00
2023-04-09T12:02:03.357Z,20672.00
2023-04-09T12:03:03.658Z,19360.00
2023-04-09T12:04:03.445Z,18720.00
2023-04-09T12:05:03.056Z,18240.00
2023-04-09T12:06:03.579Z,17952.00
2023-04-09T12:07:02.905Z,18208.00
2023-04-09T12:08:02.950Z,18592.00
2023-04-09T12:09:02.751Z,19232.00
2023-04-09T12:10:02.602Z,19872.00
2023-04-09T12:11:02.926Z,20416.00
2023-04-09T12:12:02.855Z,21504.00
2023-04-09T12:13:02.010Z,20608.00
2023-04-09T12:14:02.040Z,20672.00
2023-04-09T12:15:02.129Z,20864.00
2023-04-09T12:16:02.302Z,20992.00
2023-04-09T12:17:02.539Z,21024.00
2023-04-09T12:18:03.287Z,20832.00
2023-04-09T12:19:03.163Z,20672.00
2023-04-09T12:20:02.839Z,20576.00
2023-04-09T12:21:02.949Z,20576.00